createdAt,value
2018-03-16T00:00:14.542Z,37.40
2018-03-16T00:01:14.583Z,37.70
2018-03-16T00:02:14.565Z,38.30
2018-03-16T00:03:14.735Z,36.10
2018-03-16T00:04:14.523Z,42.30
2018-03-16T00:05:14.527Z,41.20
2018-03-16T00:06:14.582Z,39.60
2018-03-16T00:07:14.510Z,39.90
2018-03-16T00:08:14.514Z,42.20
2018-03-16T00:09:14.503Z,39.80
2018-03-16T00:10:14.503Z,39.30
2018-03-16T00:11:14.539Z,44.80
2018-03-16T00:12:14.487Z,39.50
2018-03-16T00:13:14.484Z,39.50
2018-03-16T00:14:14.476Z,38.80
2018-03-16T00:15:14.475Z,38.90
2018-03-16T00:16:14.525Z,39.00
2018-03-16T00:17:14.507Z,39.80
2018-03-16T00:18:14.476Z,44.90
2018-03-16T00:19:14.474Z,40.80
2018-03-16T00:20:14.447Z,38.20
2018-03-16T00:21:14.490Z,39.50
2018-03-16T00:22:14.455Z,38.30
2018-03-16T00:23:14.436Z,38.50
2018-03-16T00:24:14.435Z,40.20
2018-03-16T00:25:14.425Z,45.30
2018-03-16T00:26:14.480Z,44.10
2018-03-16T00:27:14.454Z,39.70
2018-03-16T00:28:14.422Z,40.80
2018-03-16T00:29:14.420Z,44.10
2018-03-16T00:30:14.404Z,43.30
2018-03-16T00:31:14.434Z,41.50
2018-03-16T00:32:14.402Z,45.90
2018-03-16T00:33:14.386Z,46.80
2018-03-16T00:34:14.383Z,44.40
2018-03-16T00:35:14.388Z,41.70
2018-03-16T00:36:14.422Z,44.50
2018-03-16T00:37:14.369Z,44.90
2018-03-16T00:38:14.411Z,45.00
2018-03-16T00:39:14.371Z,47.50
2018-03-16T00:40:14.370Z,46.30
2018-03-16T00:41:14.400Z,47.90
2018-03-16T00:42:14.345Z,52.50
2018-03-16T00:43:14.350Z,48.70
2018-03-16T00:44:14.337Z,51.60
2018-03-16T00:45:14.368Z,50.90
2018-03-16T00:46:14.359Z,44.80
2018-03-16T00:47:14.331Z,46.00
2018-03-16T00:48:14.317Z,47.70
2018-03-16T00:49:14.319Z,50.50
2018-03-16T00:50:14.354Z,48.60
2018-03-16T00:51:14.310Z,48.80
2018-03-16T00:52:14.308Z,47.00
2018-03-16T00:53:14.311Z,48.10
2018-03-16T00:54:14.296Z,47.10
2018-03-16T00:55:14.337Z,47.10
2018-03-16T00:56:14.290Z,48.50
2018-03-16T00:57:14.273Z,48.40
2018-03-16T00:58:14.285Z,43.80
2018-03-16T00:59:14.265Z,46.30
2018-03-16T01:00:14.320Z,50.70
2018-03-16T01:01:14.264Z,51.40
2018-03-16T01:02:14.262Z,48.30
2018-03-16T01:03:14.286Z,49.10
2018-03-16T01:04:14.250Z,51.70
2018-03-16T01:05:14.278Z,52.20
2018-03-16T01:06:14.259Z,50.70
2018-03-16T01:07:14.239Z,48.50
2018-03-16T01:08:14.223Z,55.10
2018-03-16T01:09:14.218Z,48.60
2018-03-16T01:10:14.269Z,50.40
2018-03-16T01:11:14.210Z,47.20
2018-03-16T01:12:14.213Z,47.80
2018-03-16T01:13:14.211Z,49.30
2018-03-16T01:14:14.196Z,48.60
2018-03-16T01:15:14.645Z,50.50
2018-03-16T01:16:14.194Z,48.80
2018-03-16T01:17:14.184Z,48.60
2018-03-16T01:18:14.179Z,48.40
2018-03-16T01:19:14.182Z,47.10
2018-03-16T01:20:14.219Z,47.50
2018-03-16T01:21:14.174Z,48.80
2018-03-16T01:22:14.176Z,48.90
2018-03-16T01:23:14.170Z,50.80
2018-03-16T01:24:14.166Z,48.40
2018-03-16T01:25:14.185Z,50.20
2018-03-16T01:26:14.141Z,50.30
2018-03-16T01:27:14.144Z,48.20
2018-03-16T01:28:14.147Z,51.20
2018-03-16T01:29:14.131Z,44.70
2018-03-16T01:30:14.188Z,51.40
2018-03-16T01:31:14.138Z,45.70
2018-03-16T01:32:14.118Z,48.30
2018-03-16T01:33:14.138Z,47.10
2018-03-16T01:34:14.117Z,51.60
2018-03-16T01:35:14.149Z,49.70
2018-03-16T01:36:14.101Z,49.90
2018-03-16T01:37:14.103Z,48.80
2018-03-16T01:38:14.098Z,49.50
2018-03-16T01:39:14.092Z,51.60
2018-03-16T01:40:14.122Z,49.10
2018-03-16T01:41:14.087Z,52.70
2018-03-16T01:42:14.082Z,49.10
2018-03-16T01:43:14.068Z,51.70
2018-03-16T01:44:14.104Z,49.70
2018-03-16T01:45:14.071Z,50.10
2018-03-16T01:46:14.066Z,50.20
2018-03-16T01:47:14.074Z,49.10
2018-03-16T01:48:14.053Z,52.40
2018-03-16T01:49:14.052Z,48.50
2018-03-16T01:50:14.091Z,48.40
2018-03-16T01:51:14.043Z,49.50
2018-03-16T01:52:14.041Z,53.20
2018-03-16T01:53:14.037Z,48.50
2018-03-16T01:54:14.027Z,49.90
2018-03-16T01:55:14.071Z,51.90
2018-03-16T01:56:14.016Z,49.50
2018-03-16T01:57:14.033Z,54.00
2018-03-16T01:58:14.017Z,48.50
2018-03-16T01:59:14.016Z,48.00
2018-03-16T02:00:14.063Z,50.90
2018-03-16T02:01:13.992Z,51.00
2018-03-16T02:02:13.996Z,47.80
2018-03-16T02:03:13.983Z,47.80
2018-03-16T02:04:13.989Z,51.30
2018-03-16T02:05:14.020Z,52.30
2018-03-16T02:06:13.971Z,52.80
2018-03-16T02:07:14.000Z,50.80
2018-03-16T02:08:13.972Z,51.70
2018-03-16T02:09:13.968Z,53.60
2018-03-16T02:10:13.990Z,53.00
2018-03-16T02:11:13.951Z,53.30
2018-03-16T02:12:13.948Z,54.00
2018-03-16T02:13:13.939Z,54.60
2018-03-16T02:14:13.964Z,55.20
2018-03-16T02:15:13.978Z,49.30
2018-03-16T02:16:13.928Z,59.90
2018-03-16T02:17:13.926Z,55.40
2018-03-16T02:18:13.918Z,57.20
2018-03-16T02:19:13.916Z,64.60
2018-03-16T02:20:13.949Z,56.10
2018-03-16T02:21:13.913Z,63.20
2018-03-16T02:22:13.899Z,66.50
2018-03-16T02:23:13.907Z,58.80
2018-03-16T02:24:13.903Z,61.50
2018-03-16T02:25:13.925Z,58.80
2018-03-16T02:26:13.894Z,65.10
2018-03-16T02:27:13.894Z,69.00
2018-03-16T02:28:13.888Z,69.80
2018-03-16T02:29:13.868Z,68.20
2018-03-16T02:30:13.907Z,63.60
2018-03-16T02:31:13.871Z,70.80
2018-03-16T02:32:13.860Z,73.80
2018-03-16T02:33:13.864Z,72.80
2018-03-16T02:34:13.868Z,73.60
2018-03-16T02:35:13.891Z,82.40
2018-03-16T02:36:13.848Z,78.20
2018-03-16T02:37:13.842Z,71.10
2018-03-16T02:38:13.842Z,75.10
2018-03-16T02:39:13.835Z,79.50
2018-03-16T02:40:13.871Z,89.50
2018-03-16T02:41:13.866Z,90.40
2018-03-16T02:42:13.813Z,91.70
2018-03-16T02:43:13.908Z,90.00
2018-03-16T02:44:13.814Z,77.80
2018-03-16T02:45:13.836Z,74.80
2018-03-16T02:46:13.798Z,85.40
2018-03-16T02:47:13.788Z,85.90
2018-03-16T02:48:13.797Z,90.30
2018-03-16T02:49:14.439Z,82.70
2018-03-16T02:50:13.813Z,89.00
2018-03-16T02:51:13.785Z,86.20
2018-03-16T02:52:13.812Z,75.60
2018-03-16T02:53:13.771Z,81.10
2018-03-16T02:54:13.784Z,92.80
2018-03-16T02:55:13.801Z,86.00
2018-03-16T02:56:13.795Z,93.60
2018-03-16T02:57:13.754Z,100.20
2018-03-16T02:58:13.747Z,91.50
2018-03-16T02:59:13.759Z,99.70
2018-03-16T03:00:13.782Z,103.00
2018-03-16T03:01:13.797Z,111.80
2018-03-16T03:02:13.773Z,107.40
2018-03-16T03:03:13.722Z,103.70
2018-03-16T03:04:13.753Z,102.00
2018-03-16T03:05:13.765Z,114.60
2018-03-16T03:06:13.705Z,111.10
2018-03-16T03:07:13.736Z,114.30
2018-03-16T03:08:13.730Z,107.80
2018-03-16T03:09:13.743Z,105.30
2018-03-16T03:10:13.742Z,112.60
2018-03-16T03:11:13.750Z,96.90
2018-03-16T03:12:13.749Z,110.70
2018-03-16T03:13:13.736Z,98.00
2018-03-16T03:14:13.663Z,90.70
2018-03-16T03:15:13.702Z,94.30
2018-03-16T03:16:13.742Z,108.10
2018-03-16T03:17:13.663Z,114.70
2018-03-16T03:18:13.669Z,110.50
2018-03-16T03:19:13.683Z,101.60
2018-03-16T03:20:13.649Z,101.60
2018-03-16T03:21:13.653Z,104.40
2018-03-16T03:22:13.634Z,112.80
2018-03-16T03:23:13.668Z,108.60
2018-03-16T03:24:13.657Z,104.20
2018-03-16T03:25:13.613Z,109.50
2018-03-16T03:26:13.647Z,107.40
2018-03-16T03:27:13.612Z,93.30
2018-03-16T03:28:13.634Z,96.20
2018-03-16T03:29:13.655Z,108.60
2018-03-16T03:30:13.591Z,115.40
2018-03-16T03:31:13.596Z,98.40
2018-03-16T03:32:13.579Z,96.10
2018-03-16T03:33:13.583Z,106.90
2018-03-16T03:34:13.596Z,94.60
2018-03-16T03:35:13.616Z,98.20
2018-03-16T03:36:13.564Z,94.60
2018-03-16T03:37:13.553Z,93.30
2018-03-16T03:38:13.563Z,89.40
2018-03-16T03:39:13.592Z,101.00
2018-03-16T03:40:13.552Z,108.30
2018-03-16T03:41:13.536Z,114.80
2018-03-16T03:42:13.544Z,124.00
2018-03-16T03:43:13.540Z,122.40
2018-03-16T03:44:13.571Z,115.00
2018-03-16T03:45:13.522Z,110.60
2018-03-16T03:46:13.524Z,102.20
2018-03-16T03:47:13.511Z,109.00
2018-03-16T03:48:13.537Z,113.50
2018-03-16T03:49:13.549Z,106.90
2018-03-16T03:50:13.506Z,97.60
2018-03-16T03:51:13.492Z,107.30
2018-03-16T03:52:13.498Z,91.50
2018-03-16T03:53:13.480Z,94.80
2018-03-16T03:54:13.522Z,96.20
2018-03-16T03:55:13.491Z,96.60
2018-03-16T03:56:13.486Z,98.10
2018-03-16T03:57:13.466Z,91.20
2018-03-16T03:58:13.467Z,98.00
2018-03-16T03:59:13.505Z,96.00
2018-03-16T04:00:13.459Z,97.70
2018-03-16T04:01:13.444Z,112.00
2018-03-16T04:02:13.442Z,108.90
2018-03-16T04:03:16.106Z,107.90
2018-03-16T04:04:13.468Z,114.40
2018-03-16T04:05:13.452Z,128.00
2018-03-16T04:06:13.426Z,115.10
2018-03-16T04:07:13.420Z,113.90
2018-03-16T04:08:14.067Z,104.00
2018-03-16T04:09:13.447Z,94.20
2018-03-16T04:10:13.403Z,100.90
2018-03-16T04:11:13.400Z,97.50
2018-03-16T04:12:13.427Z,99.30
2018-03-16T04:13:13.404Z,101.80
2018-03-16T04:14:13.435Z,121.20
2018-03-16T04:15:13.948Z,99.20
2018-03-16T04:16:13.387Z,103.50
2018-03-16T04:17:13.432Z,99.90
2018-03-16T04:18:13.378Z,112.30
2018-03-16T04:19:13.373Z,78.00
2018-03-16T04:20:13.370Z,93.20
2018-03-16T04:21:13.362Z,101.30
2018-03-16T04:22:13.410Z,111.70
2018-03-16T04:23:13.355Z,130.70
2018-03-16T04:24:13.355Z,121.00
2018-03-16T04:25:13.409Z,119.40
2018-03-16T04:26:13.342Z,112.40
2018-03-16T04:27:13.338Z,110.50
2018-03-16T04:28:13.330Z,127.70
2018-03-16T04:29:13.349Z,118.90
2018-03-16T04:30:13.362Z,113.60
2018-03-16T04:31:13.319Z,120.50
2018-03-16T04:32:13.366Z,110.60
2018-03-16T04:33:13.310Z,128.30
2018-03-16T04:34:13.302Z,130.70
2018-03-16T04:35:13.300Z,129.60
2018-03-16T04:36:13.292Z,129.90
2018-03-16T04:37:13.332Z,133.70
2018-03-16T04:38:13.300Z,126.60
2018-03-16T04:39:13.302Z,110.00
2018-03-16T04:40:13.276Z,115.20
2018-03-16T04:41:13.273Z,127.60
2018-03-16T04:42:13.311Z,128.30
2018-03-16T04:43:13.265Z,130.00
2018-03-16T04:44:13.260Z,131.80
2018-03-16T04:45:13.253Z,120.30
2018-03-16T04:46:13.250Z,114.30
2018-03-16T04:47:13.288Z,122.60
2018-03-16T04:48:13.239Z,129.90
2018-03-16T04:49:13.239Z,121.90
2018-03-16T04:50:13.232Z,125.00
2018-03-16T04:51:13.223Z,117.30
2018-03-16T04:52:13.272Z,114.40
2018-03-16T04:53:13.224Z,114.70
2018-03-16T04:54:13.212Z,132.60
2018-03-16T04:55:14.175Z,127.00
2018-03-16T04:56:13.207Z,150.60
2018-03-16T04:57:13.928Z,126.80
2018-03-16T04:58:13.193Z,122.50
2018-03-16T04:59:13.252Z,112.90
2018-03-16T05:00:13.185Z,117.00
2018-03-16T05:01:14.164Z,113.00
2018-03-16T05:02:13.216Z,117.40
2018-03-16T05:03:13.170Z,117.80
2018-03-16T05:04:13.164Z,122.70
2018-03-16T05:05:13.165Z,141.70
2018-03-16T05:06:13.160Z,139.40
2018-03-16T05:07:13.192Z,110.00
2018-03-16T05:08:13.145Z,117.70
2018-03-16T05:09:13.143Z,140.30
2018-03-16T05:10:13.136Z,120.10
2018-03-16T05:11:13.186Z,120.80
2018-03-16T05:12:13.152Z,106.80
2018-03-16T05:13:13.122Z,143.30
2018-03-16T05:14:13.166Z,138.80
2018-03-16T05:15:13.113Z,141.60
2018-03-16T05:16:13.114Z,155.50
2018-03-16T05:17:13.106Z,127.10
2018-03-16T05:18:13.112Z,136.90
2018-03-16T05:19:13.136Z,166.20
2018-03-16T05:20:13.089Z,148.30
2018-03-16T05:21:13.085Z,167.80
2018-03-16T05:22:13.123Z,135.00
2018-03-16T05:23:13.074Z,147.30
2018-03-16T05:24:13.074Z,141.60
2018-03-16T05:25:13.066Z,131.70
2018-03-16T05:26:13.067Z,157.80
2018-03-16T05:27:13.099Z,149.90
2018-03-16T05:28:13.055Z,161.70
2018-03-16T05:29:13.046Z,158.20
2018-03-16T05:30:13.047Z,138.80
2018-03-16T05:31:13.040Z,151.40
2018-03-16T05:32:13.072Z,159.70
2018-03-16T05:33:13.032Z,127.50
2018-03-16T05:34:13.024Z,157.90
2018-03-16T05:35:13.020Z,161.70
2018-03-16T05:36:13.016Z,150.20
2018-03-16T05:37:13.050Z,129.70
2018-03-16T05:38:13.009Z,130.90
2018-03-16T05:39:13.006Z,110.90
2018-03-16T05:40:12.997Z,135.40
2018-03-16T05:41:12.996Z,158.20
2018-03-16T05:42:13.040Z,148.30
2018-03-16T05:43:12.987Z,149.20
2018-03-16T05:44:12.978Z,133.90
2018-03-16T05:45:13.012Z,149.60
2018-03-16T05:46:12.979Z,138.80
2018-03-16T05:47:12.967Z,122.90
2018-03-16T05:48:13.011Z,118.40
2018-03-16T05:49:12.957Z,133.80
2018-03-16T05:50:13.011Z,129.10
2018-03-16T05:51:12.957Z,145.30
2018-03-16T05:52:12.995Z,151.80
2018-03-16T05:53:12.957Z,120.80
2018-03-16T05:54:12.935Z,138.90
2018-03-16T05:55:12.940Z,166.40
2018-03-16T05:56:12.969Z,169.10
2018-03-16T05:57:12.922Z,136.70
2018-03-16T05:58:12.968Z,144.10
2018-03-16T05:59:12.911Z,150.60
2018-03-16T06:00:12.932Z,159.00
2018-03-16T06:01:12.943Z,161.10
2018-03-16T06:02:12.896Z,162.20
2018-03-16T06:03:12.942Z,153.00
2018-03-16T06:04:12.888Z,150.90
2018-03-16T06:05:12.881Z,137.60
2018-03-16T06:06:12.879Z,141.20
2018-03-16T06:07:12.930Z,130.10
2018-03-16T06:08:12.867Z,155.40
2018-03-16T06:09:12.865Z,131.30
2018-03-16T06:10:12.861Z,140.90
2018-03-16T06:11:12.855Z,109.50
2018-03-16T06:12:12.900Z,119.80
2018-03-16T06:13:12.847Z,151.60
2018-03-16T06:14:12.840Z,139.10
2018-03-16T06:15:12.891Z,140.70
2018-03-16T06:16:12.842Z,151.20
2018-03-16T06:17:12.828Z,166.10
2018-03-16T06:18:12.860Z,133.80
2018-03-16T06:19:12.837Z,148.70
2018-03-16T06:20:12.843Z,157.70
2018-03-16T06:21:12.809Z,136.20
2018-03-16T06:22:12.858Z,152.90
2018-03-16T06:23:12.800Z,150.60
2018-03-16T06:24:12.800Z,145.60
2018-03-16T06:25:12.830Z,139.30
2018-03-16T06:26:12.788Z,131.60
2018-03-16T06:27:12.791Z,142.20
2018-03-16T06:28:12.819Z,145.60
2018-03-16T06:29:12.773Z,136.30
2018-03-16T06:30:12.772Z,144.50
2018-03-16T06:31:12.766Z,142.30
2018-03-16T06:32:12.764Z,137.50
2018-03-16T06:33:12.793Z,146.20
2018-03-16T06:34:12.753Z,130.50
2018-03-16T06:35:12.750Z,151.50
2018-03-16T06:36:12.745Z,136.00
2018-03-16T06:37:12.739Z,140.00
2018-03-16T06:38:12.776Z,141.50
2018-03-16T06:39:12.728Z,128.70
2018-03-16T06:40:12.734Z,128.30
2018-03-16T06:41:12.719Z,126.60
2018-03-16T06:42:13.460Z,121.90
2018-03-16T06:43:12.771Z,141.50
2018-03-16T06:44:12.707Z,132.10
2018-03-16T06:45:12.708Z,125.70
2018-03-16T06:46:12.699Z,128.70
2018-03-16T06:47:12.716Z,121.70
2018-03-16T06:48:12.739Z,109.90
2018-03-16T06:49:12.734Z,121.50
2018-03-16T06:50:12.681Z,120.90
2018-03-16T06:51:12.677Z,119.10
2018-03-16T06:52:12.672Z,116.20
2018-03-16T06:53:12.665Z,123.90
2018-03-16T06:54:12.718Z,117.60
2018-03-16T06:55:12.662Z,128.20
2018-03-16T06:56:12.657Z,122.40
2018-03-16T06:57:12.648Z,119.90
2018-03-16T06:58:12.644Z,116.10
2018-03-16T06:59:12.691Z,105.60
2018-03-16T07:00:13.463Z,97.10
2018-03-16T07:01:12.635Z,126.40
2018-03-16T07:02:12.626Z,112.50
2018-03-16T07:03:12.625Z,114.00
2018-03-16T07:04:12.675Z,105.50
2018-03-16T07:05:12.617Z,121.40
2018-03-16T07:06:12.614Z,114.80
2018-03-16T07:07:12.620Z,108.50
2018-03-16T07:08:12.649Z,119.70
2018-03-16T07:09:12.599Z,114.50
2018-03-16T07:10:12.593Z,107.30
2018-03-16T07:11:12.595Z,113.50
2018-03-16T07:12:12.584Z,97.00
2018-03-16T07:13:12.620Z,97.10
2018-03-16T07:14:19.950Z,109.90
2018-03-16T07:15:12.571Z,89.00
2018-03-16T07:16:12.572Z,98.80
2018-03-16T07:17:12.565Z,96.20
2018-03-16T07:18:12.599Z,106.00
2018-03-16T07:19:12.554Z,98.90
2018-03-16T07:20:12.552Z,86.90
2018-03-16T07:21:12.572Z,99.80
2018-03-16T07:22:12.542Z,98.60
2018-03-16T07:23:12.636Z,95.70
2018-03-16T07:24:12.534Z,86.90
2018-03-16T07:25:13.019Z,85.70
2018-03-16T07:26:12.531Z,92.30
2018-03-16T07:27:12.520Z,102.40
2018-03-16T07:28:12.559Z,97.10
2018-03-16T07:29:12.536Z,85.50
2018-03-16T07:30:12.533Z,93.80
2018-03-16T07:31:12.523Z,86.90
2018-03-16T07:32:12.522Z,87.10
2018-03-16T07:33:12.548Z,88.80
2018-03-16T07:34:12.496Z,74.30
2018-03-16T07:35:12.514Z,75.40
2018-03-16T07:36:12.487Z,81.30
2018-03-16T07:37:12.539Z,75.40
2018-03-16T07:38:12.521Z,99.40
2018-03-16T07:39:12.495Z,73.20
2018-03-16T07:40:12.471Z,89.90
2018-03-16T07:41:12.484Z,88.10
2018-03-16T07:42:12.462Z,86.60
2018-03-16T07:43:12.502Z,86.60
2018-03-16T07:44:12.460Z,82.20
2018-03-16T07:45:12.454Z,75.10
2018-03-16T07:46:12.461Z,70.40
2018-03-16T07:47:12.445Z,82.10
2018-03-16T07:48:12.480Z,74.20
2018-03-16T07:49:12.440Z,73.50
2018-03-16T07:50:12.435Z,83.10
2018-03-16T07:51:12.428Z,84.50
2018-03-16T07:52:12.425Z,89.60
2018-03-16T07:53:12.458Z,84.20
2018-03-16T07:54:12.418Z,88.90
2018-03-16T07:55:12.414Z,74.50
2018-03-16T07:56:12.408Z,84.30
2018-03-16T07:57:12.454Z,83.80
2018-03-16T07:58:12.401Z,84.60
2018-03-16T07:59:12.436Z,88.60
2018-03-16T08:00:12.546Z,89.70
2018-03-16T08:01:12.392Z,86.50
2018-03-16T08:02:12.428Z,90.80
2018-03-16T08:03:12.404Z,83.10
2018-03-16T08:04:12.379Z,85.90
2018-03-16T08:05:12.375Z,80.90
2018-03-16T08:06:12.382Z,81.70
2018-03-16T08:07:12.403Z,93.80
2018-03-16T08:08:12.366Z,92.20
2018-03-16T08:09:12.362Z,87.20
2018-03-16T08:10:12.356Z,95.10
2018-03-16T08:11:12.354Z,80.50
2018-03-16T08:12:12.388Z,78.10
2018-03-16T08:13:12.362Z,87.60
2018-03-16T08:14:12.346Z,91.90
2018-03-16T08:15:12.384Z,102.90
2018-03-16T08:16:12.366Z,90.80
2018-03-16T08:17:12.370Z,99.50
2018-03-16T08:18:12.331Z,84.00
2018-03-16T08:19:12.327Z,84.20
2018-03-16T08:20:12.321Z,87.60
2018-03-16T08:21:12.315Z,93.30
2018-03-16T08:22:12.360Z,81.20
2018-03-16T08:23:12.332Z,96.80
2018-03-16T08:24:12.347Z,90.40
2018-03-16T08:25:12.302Z,84.10
2018-03-16T08:26:12.299Z,83.50
2018-03-16T08:27:12.297Z,73.40
2018-03-16T08:28:12.341Z,87.30
2018-03-16T08:29:12.288Z,87.20
2018-03-16T08:30:12.311Z,90.50
2018-03-16T08:31:12.283Z,85.30
2018-03-16T08:32:12.278Z,85.20
2018-03-16T08:33:12.323Z,92.20
2018-03-16T08:34:12.270Z,90.00
2018-03-16T08:35:12.269Z,74.00
2018-03-16T08:36:12.265Z,65.20
2018-03-16T08:37:12.265Z,87.30
2018-03-16T08:38:12.294Z,79.40
2018-03-16T08:39:12.259Z,93.90
2018-03-16T08:40:12.261Z,89.10
2018-03-16T08:41:12.245Z,94.30
2018-03-16T08:42:12.245Z,90.40
2018-03-16T08:43:12.282Z,87.30
2018-03-16T08:44:12.238Z,86.90
2018-03-16T08:45:12.234Z,87.20
2018-03-16T08:46:12.261Z,90.10
2018-03-16T08:47:12.228Z,88.30
2018-03-16T08:48:12.262Z,88.40
2018-03-16T08:49:12.223Z,89.20
2018-03-16T08:50:12.223Z,87.30
2018-03-16T08:51:12.236Z,80.80
2018-03-16T08:52:12.211Z,85.50
2018-03-16T08:53:12.264Z,81.10
2018-03-16T08:54:12.205Z,78.10
2018-03-16T08:55:12.200Z,79.00
2018-03-16T08:56:12.198Z,81.50
2018-03-16T08:57:12.193Z,81.90
2018-03-16T08:58:12.232Z,72.80
2018-03-16T08:59:12.229Z,67.10
2018-03-16T09:00:12.189Z,81.00
2018-03-16T09:01:12.206Z,74.40
2018-03-16T09:02:12.181Z,83.20
2018-03-16T09:03:12.758Z,81.20
2018-03-16T09:04:12.231Z,80.20
2018-03-16T09:05:12.171Z,75.20
2018-03-16T09:06:12.171Z,79.80
2018-03-16T09:07:12.168Z,75.20
2018-03-16T09:08:12.163Z,84.50
2018-03-16T09:09:12.198Z,72.50
2018-03-16T09:10:12.156Z,77.30
2018-03-16T09:11:12.158Z,78.00
2018-03-16T09:12:12.151Z,78.90
2018-03-16T09:13:12.187Z,71.30
2018-03-16T09:14:12.164Z,72.10
2018-03-16T09:15:12.144Z,77.00
2018-03-16T09:16:12.141Z,71.40
2018-03-16T09:17:12.141Z,75.80
2018-03-16T09:18:12.195Z,73.90
2018-03-16T09:19:12.183Z,65.10
2018-03-16T09:20:12.132Z,69.00
2018-03-16T09:21:12.154Z,69.40
2018-03-16T09:22:12.126Z,68.30
2018-03-16T09:23:12.121Z,61.00
2018-03-16T09:24:12.163Z,61.70
2018-03-16T09:25:12.159Z,66.60
2018-03-16T09:26:12.116Z,70.60
2018-03-16T09:27:12.666Z,66.20
2018-03-16T09:28:12.110Z,69.90
2018-03-16T09:29:12.106Z,57.30
2018-03-16T09:30:12.146Z,74.10
2018-03-16T09:31:12.123Z,83.60
2018-03-16T09:32:12.101Z,79.90
2018-03-16T09:33:12.096Z,70.90
2018-03-16T09:34:12.097Z,75.50
2018-03-16T09:35:12.129Z,72.90
2018-03-16T09:36:12.088Z,72.60
2018-03-16T09:37:12.102Z,69.20
2018-03-16T09:38:12.101Z,58.30
2018-03-16T09:39:12.082Z,62.40
2018-03-16T09:40:12.119Z,64.00
2018-03-16T09:41:12.096Z,65.70
2018-03-16T09:42:12.079Z,66.70
2018-03-16T09:43:12.075Z,66.70
2018-03-16T09:44:12.069Z,63.50
2018-03-16T09:45:12.122Z,64.20
2018-03-16T09:46:12.067Z,59.20
2018-03-16T09:47:12.062Z,58.70
2018-03-16T09:48:12.076Z,59.10
2018-03-16T09:49:12.055Z,62.20
2018-03-16T09:50:12.106Z,56.90
2018-03-16T09:51:12.052Z,62.40
2018-03-16T09:52:12.050Z,62.70
2018-03-16T09:53:12.044Z,65.60
2018-03-16T09:54:12.180Z,61.70
2018-03-16T09:55:12.051Z,68.40
2018-03-16T09:56:12.039Z,57.50
2018-03-16T09:57:12.036Z,66.80
2018-03-16T09:58:12.045Z,58.60
2018-03-16T09:59:12.081Z,59.70
2018-03-16T10:00:12.032Z,62.80
2018-03-16T10:01:12.024Z,65.20
2018-03-16T10:02:12.059Z,63.60
2018-03-16T10:03:12.019Z,66.40
2018-03-16T10:04:12.060Z,61.00
2018-03-16T10:05:12.023Z,58.10
2018-03-16T10:06:12.064Z,57.10
2018-03-16T10:07:12.012Z,61.10
2018-03-16T10:08:12.005Z,53.70
2018-03-16T10:09:12.045Z,56.60
2018-03-16T10:10:12.001Z,58.90
2018-03-16T10:11:11.997Z,53.30
2018-03-16T10:12:12.055Z,57.70
2018-03-16T10:13:11.992Z,53.20
2018-03-16T10:14:14.118Z,59.90
2018-03-16T10:15:12.040Z,48.30
2018-03-16T10:16:11.984Z,54.50
2018-03-16T10:17:12.019Z,57.30
2018-03-16T10:18:11.979Z,58.90
2018-03-16T10:19:11.996Z,59.50
2018-03-16T10:20:11.971Z,54.50
2018-03-16T10:21:11.969Z,54.50
2018-03-16T10:22:12.025Z,55.90
2018-03-16T10:23:11.965Z,59.00
2018-03-16T10:24:12.000Z,53.70
2018-03-16T10:25:11.956Z,54.90
2018-03-16T10:26:11.954Z,62.20
2018-03-16T10:27:12.002Z,63.40
2018-03-16T10:28:11.952Z,64.30
2018-03-16T10:29:12.000Z,64.50
2018-03-16T10:30:11.947Z,54.00
2018-03-16T10:31:11.943Z,54.20
2018-03-16T10:32:11.938Z,57.30
2018-03-16T10:33:11.936Z,54.70
2018-03-16T10:34:11.980Z,56.60
2018-03-16T10:35:11.933Z,57.70
2018-03-16T10:36:11.927Z,59.30
2018-03-16T10:37:11.924Z,55.70
2018-03-16T10:38:11.963Z,57.80
2018-03-16T10:39:11.923Z,56.40
2018-03-16T10:40:11.919Z,48.00
2018-03-16T10:41:11.916Z,49.80
2018-03-16T10:42:11.909Z,50.30
2018-03-16T10:43:11.963Z,52.80
2018-03-16T10:44:11.905Z,44.10
2018-03-16T10:45:11.904Z,49.20
2018-03-16T10:46:11.903Z,54.20
2018-03-16T10:47:11.897Z,49.50
2018-03-16T10:48:11.932Z,48.50
2018-03-16T10:49:11.891Z,49.90
2018-03-16T10:50:12.294Z,49.40
2018-03-16T10:51:11.890Z,46.70
2018-03-16T10:52:11.902Z,52.40
2018-03-16T10:53:11.952Z,46.20
2018-03-16T10:54:11.916Z,37.80
2018-03-16T10:55:11.890Z,43.00
2018-03-16T10:56:11.907Z,43.70
2018-03-16T10:57:11.881Z,37.80
2018-03-16T10:58:11.913Z,44.00
2018-03-16T10:59:11.867Z,47.90
2018-03-16T11:00:11.865Z,50.20
2018-03-16T11:01:11.865Z,46.20
2018-03-16T11:02:11.863Z,46.70
2018-03-16T11:03:11.927Z,47.00
2018-03-16T11:04:11.854Z,47.50
2018-03-16T11:05:11.854Z,45.70
2018-03-16T11:06:11.851Z,40.40
2018-03-16T11:07:11.850Z,39.40
2018-03-16T11:08:11.890Z,43.40
2018-03-16T11:09:12.452Z,43.70
2018-03-16T11:10:12.457Z,44.30
2018-03-16T11:11:11.853Z,46.40
2018-03-16T11:12:11.840Z,45.70
2018-03-16T11:13:11.873Z,49.10
2018-03-16T11:14:11.834Z,47.10
2018-03-16T11:15:11.831Z,45.50
2018-03-16T11:16:11.826Z,48.40
2018-03-16T11:17:11.832Z,45.30
2018-03-16T11:18:11.861Z,41.50
2018-03-16T11:19:11.821Z,39.30
2018-03-16T11:20:11.839Z,40.70
2018-03-16T11:21:11.814Z,36.90
2018-03-16T11:22:11.814Z,29.90
2018-03-16T11:23:11.850Z,39.60
2018-03-16T11:24:11.810Z,40.50
2018-03-16T11:25:11.805Z,41.70
2018-03-16T11:26:11.806Z,41.70
2018-03-16T11:27:11.820Z,36.70
2018-03-16T11:28:11.837Z,38.40
2018-03-16T11:29:11.798Z,36.40
2018-03-16T11:30:11.799Z,39.40
2018-03-16T11:31:11.794Z,39.10
2018-03-16T11:32:11.794Z,34.20
2018-03-16T11:33:11.839Z,37.50
2018-03-16T11:34:11.914Z,36.70
2018-03-16T11:35:11.789Z,37.00
2018-03-16T11:36:11.782Z,40.90
2018-03-16T11:37:11.789Z,40.30
2018-03-16T11:38:11.815Z,38.50
2018-03-16T11:39:11.777Z,38.80
2018-03-16T11:40:11.777Z,34.80
2018-03-16T11:41:11.771Z,35.20
2018-03-16T11:42:11.767Z,36.40
2018-03-16T11:43:11.806Z,33.80
2018-03-16T11:44:11.767Z,36.30
2018-03-16T11:45:11.761Z,33.40
2018-03-16T11:46:11.758Z,35.30
2018-03-16T11:47:12.467Z,36.40
2018-03-16T11:48:11.791Z,36.10
2018-03-16T11:49:11.803Z,40.60
2018-03-16T11:50:11.756Z,41.10
2018-03-16T11:51:11.763Z,34.10
2018-03-16T11:52:11.745Z,38.20
2018-03-16T11:53:11.792Z,39.30
2018-03-16T11:54:11.791Z,39.40
2018-03-16T11:55:11.740Z,40.10
2018-03-16T11:56:11.735Z,36.70
2018-03-16T11:57:11.737Z,39.70
2018-03-16T11:58:11.730Z,41.00
2018-03-16T11:59:11.774Z,41.30
2018-03-16T12:00:11.725Z,42.60
2018-03-16T12:01:11.735Z,44.10
2018-03-16T12:02:11.717Z,44.90
2018-03-16T12:03:11.771Z,39.60
2018-03-16T12:04:11.755Z,39.20
2018-03-16T12:05:11.711Z,42.30
2018-03-16T12:06:11.736Z,43.10
2018-03-16T12:07:11.712Z,41.30
2018-03-16T12:08:11.730Z,44.40
2018-03-16T12:09:11.751Z,47.30
2018-03-16T12:10:11.701Z,46.80
2018-03-16T12:11:11.698Z,51.40
2018-03-16T12:12:12.460Z,43.30
2018-03-16T12:13:11.721Z,52.10
2018-03-16T12:14:11.741Z,53.90
2018-03-16T12:15:11.688Z,59.30
2018-03-16T12:16:11.683Z,51.50
2018-03-16T12:17:11.680Z,57.10
2018-03-16T12:18:11.701Z,58.30
2018-03-16T12:19:11.713Z,56.10
2018-03-16T12:20:11.673Z,42.20
2018-03-16T12:21:11.681Z,54.20
2018-03-16T12:22:11.667Z,50.10
2018-03-16T12:23:11.675Z,50.70
2018-03-16T12:24:11.702Z,55.90
2018-03-16T12:25:11.683Z,55.20
2018-03-16T12:26:11.654Z,53.70
2018-03-16T12:27:11.655Z,49.50
2018-03-16T12:28:11.674Z,51.80
2018-03-16T12:29:11.688Z,50.10
2018-03-16T12:30:11.642Z,50.90
2018-03-16T12:31:11.644Z,54.20
2018-03-16T12:32:11.640Z,48.50
2018-03-16T12:33:11.632Z,50.10
2018-03-16T12:34:11.668Z,49.90
2018-03-16T12:35:11.655Z,49.60
2018-03-16T12:36:11.626Z,58.50
2018-03-16T12:37:11.633Z,55.60
2018-03-16T12:38:11.642Z,51.60
2018-03-16T12:39:11.658Z,47.80
2018-03-16T12:40:11.616Z,37.90
2018-03-16T12:41:11.633Z,46.10
2018-03-16T12:42:11.631Z,45.30
2018-03-16T12:43:11.601Z,41.60
2018-03-16T12:44:11.636Z,45.30
2018-03-16T12:45:11.592Z,44.80